Time;durP1;ratioP1;P1;durP2;ratioP2;P2;SDS_P1;SDS_P2;PMS_P1;PMS_P2;Temp;Humidity;BMP_temperature;BMP_pressure;BME280_temperature;BME280_humidity;BME280_pressure;Samples;Min_cycle;Max_cycle;Signal;HPM_P1;HPM_P2
2023/10/09 00:03:00;;;;;;;12.85;7.97;;;14.00;99.90;;;;;;5127505;27;20049;-74
2023/10/09 00:05:49;;;;;;;15.05;8.23;;;14.00;99.90;;;;;;5128073;27;20039;-74
2023/10/09 00:08:18;;;;;;;14.35;8.13;;;14.00;99.90;;;;;;5126111;27;20123;-74
2023/10/09 00:10:53;;;;;;;14.48;9.00;;;14.00;99.90;;;;;;5126570;27;20051;-74
2023/10/09 00:13:29;;;;;;;12.20;8.52;;;14.00;99.90;;;;;;5108971;27;20139;-74
2023/10/09 00:16:01;;;;;;;15.38;9.43;;;14.00;99.90;;;;;;5125081;27;20050;-73
2023/10/09 00:18:30;;;;;;;15.63;9.48;;;14.00;99.90;;;;;;5127923;27;20672;-74
2023/10/09 00:21:00;;;;;;;16.20;9.98;;;14.00;99.90;;;;;;5112404;27;20114;-74
2023/10/09 00:23:27;;;;;;;;;;;14.00;99.90;;;;;;5126901;27;20142;-74
2023/10/09 00:26:16;;;;;;;15.98;9.82;;;14.00;99.90;;;;;;5109585;27;19922;-74
2023/10/09 00:28:44;;;;;;;13.95;9.55;;;14.00;99.90;;;;;;5127330;27;20059;-74
2023/10/09 00:31:28;;;;;;;17.08;9.32;;;14.00;99.90;;;;;;5125527;27;20400;-74
2023/10/09 00:33:54;;;;;;;16.98;9.63;;;14.00;99.90;;;;;;5109038;27;21039;-74
2023/10/09 00:36:28;;;;;;;18.27;10.27;;;14.00;99.90;;;;;;5125607;27;20054;-74
2023/10/09 00:38:54;;;;;;;12.98;9.50;;;14.00;99.90;;;;;;5128789;27;20130;-75
2023/10/09 00:41:22;;;;;;;16.90;9.70;;;14.00;99.90;;;;;;5126251;27;20693;-74
2023/10/09 00:43:49;;;;;;;13.25;10.13;;;14.00;99.90;;;;;;5123680;27;20038;-75
2023/10/09 00:48:48;;;;;;;15.50;10.57;;;14.00;99.90;;;;;;5127089;27;20049;-74
2023/10/09 00:51:18;;;;;;;15.18;9.82;;;14.00;99.90;;;;;;5126951;27;20054;-75
2023/10/09 00:54:07;;;;;;;16.50;10.60;;;13.90;99.90;;;;;;5110162;27;20816;-74
2023/10/09 00:56:43;;;;;;;16.13;10.93;;;14.00;99.90;;;;;;5125551;27;20748;-75
2023/10/09 00:59:20;;;;;;;16.20;11.25;;;14.00;99.90;;;;;;5107368;27;20316;-74
2023/10/09 01:02:05;;;;;;;17.27;10.43;;;13.90;99.90;;;;;;5125300;27;20039;-74
2023/10/09 01:04:36;;;;;;;19.38;11.88;;;13.90;99.90;;;;;;5108699;27;20073;-73
2023/10/09 01:07:16;;;;;;;18.33;11.75;;;13.90;99.90;;;;;;5108952;27;20054;-74
2023/10/09 01:09:45;;;;;;;15.80;10.75;;;13.90;99.90;;;;;;5107923;27;20149;-74
2023/10/09 01:12:16;;;;;;;18.52;12.75;;;13.90;99.90;;;;;;5110174;27;20074;-74
2023/10/09 01:14:43;;;;;;;18.85;12.65;;;13.90;99.90;;;;;;5127131;27;20043;-74
2023/10/09 01:17:10;;;;;;;16.95;11.95;;;13.90;99.90;;;;;;5124560;27;20042;-74
2023/10/09 01:19:37;;;;;;;20.48;12.95;;;13.80;99.90;;;;;;5123755;27;20054;-75
2023/10/09 01:22:12;;;;;;;18.73;12.98;;;13.80;99.90;;;;;;5110081;27;20035;-74
2023/10/09 01:24:39;;;;;;;19.20;12.50;;;13.80;99.90;;;;;;5112112;27;20038;-74
2023/10/09 01:27:12;;;;;;;18.83;13.18;;;13.90;99.90;;;;;;5107960;27;20062;-74
2023/10/09 01:29:41;;;;;;;20.42;14.25;;;13.80;99.90;;;;;;5107709;27;20050;-74
2023/10/09 01:32:16;;;;;;;23.00;15.63;;;13.80;99.90;;;;;;5105457;27;20030;-75
2023/10/09 01:34:42;;;;;;;23.52;14.95;;;13.80;99.90;;;;;;5106042;27;20110;-74
2023/10/09 01:37:11;;;;;;;21.52;15.57;;;13.80;99.90;;;;;;5106658;27;20031;-74
2023/10/09 01:39:42;;;;;;;19.67;14.90;;;13.80;99.90;;;;;;5124600;27;20396;-74
2023/10/09 01:42:09;;;;;;;24.27;16.65;;;13.80;99.90;;;;;;5125567;27;20050;-74
2023/10/09 01:44:35;;;;;;;27.27;17.35;;;13.80;99.90;;;;;;5123205;27;20134;-74
2023/10/09 01:47:08;;;;;;;26.13;15.70;;;13.70;99.90;;;;;;5119374;27;20039;-75
2023/10/09 01:49:37;;;;;;;23.63;17.25;;;13.80;99.90;;;;;;5108543;27;20114;-74
2023/10/09 01:52:08;;;;;;;24.30;19.40;;;13.80;99.90;;;;;;5123930;27;20096;-74
2023/10/09 01:54:37;;;;;;;26.17;18.60;;;13.70;99.90;;;;;;5115119;27;20062;-74
2023/10/09 01:57:12;;;;;;;33.03;20.63;;;13.80;99.90;;;;;;5116058;27;20074;-74
2023/10/09 01:59:39;;;;;;;26.02;19.20;;;13.80;99.90;;;;;;5117259;27;20047;-74
2023/10/09 02:02:48;;;;;;;30.88;21.85;;;13.80;99.90;;;;;;5113048;27;20083;-75
2023/10/09 02:07:51;;;;;;;35.58;24.40;;;13.80;99.90;;;;;;5116002;27;20077;-74
2023/10/09 02:12:59;;;;;;;37.42;24.80;;;13.80;99.90;;;;;;5117702;27;20046;-75
2023/10/09 02:23:41;;;;;;;29.23;21.92;;;13.80;99.90;;;;;;5108718;27;20519;-74
2023/10/09 02:26:08;;;;;;;;;;;13.80;99.90;;;;;;5106850;27;20170;-75
2023/10/09 02:28:34;;;;;;;33.60;22.90;;;13.80;99.90;;;;;;5111181;27;19994;-75
2023/10/09 02:31:09;;;;;;;34.35;22.73;;;13.80;99.90;;;;;;5122121;27;20126;-75
2023/10/09 02:33:38;;;;;;;39.08;26.45;;;13.80;99.90;;;;;;5121219;27;20061;-74
2023/10/09 02:36:12;;;;;;;32.85;23.30;;;13.80;99.90;;;;;;5107468;27;20054;-74
2023/10/09 02:38:42;;;;;;;36.17;24.15;;;13.80;99.90;;;;;;5103091;27;20556;-75
2023/10/09 02:43:55;;;;;;;38.20;25.98;;;13.80;99.90;;;;;;5126168;27;20058;-75
2023/10/09 02:46:28;;;;;;;42.65;29.55;;;13.80;99.90;;;;;;5124634;27;20047;-75
2023/10/09 02:48:56;;;;;;;44.75;30.02;;;13.80;99.90;;;;;;5112504;27;20046;-75
2023/10/09 02:53:57;;;;;;;40.80;29.27;;;13.80;99.90;;;;;;5126531;27;20050;-76
2023/10/09 02:56:24;;;;;;;47.95;31.73;;;13.80;99.90;;;;;;5111284;27;20085;-75
2023/10/09 02:58:53;;;;;;;42.80;30.60;;;13.80;99.90;;;;;;5128469;27;20043;-75
2023/10/09 03:01:19;;;;;;;46.57;34.40;;;13.80;99.90;;;;;;5142461;27;20034;-75
2023/10/09 03:03:47;;;;;;;53.55;34.60;;;13.80;99.90;;;;;;5124317;27;20039;-75
2023/10/09 03:06:28;;;;;;;54.28;34.47;;;13.80;99.90;;;;;;5129355;27;20462;-75
2023/10/09 03:08:57;;;;;;;45.70;31.50;;;13.80;99.90;;;;;;5109810;27;20035;-75
2023/10/09 03:11:24;;;;;;;49.25;33.08;;;13.90;99.90;;;;;;5123925;27;20039;-75
2023/10/09 03:13:52;;;;;;;52.80;35.42;;;13.90;99.90;;;;;;5111660;27;20053;-75
2023/10/09 03:16:21;;;;;;;53.97;36.58;;;13.90;99.90;;;;;;5110376;27;20389;-75
2023/10/09 03:18:52;;;;;;;49.75;33.83;;;13.90;99.90;;;;;;5126015;27;20050;-75
2023/10/09 03:21:18;;;;;;;53.15;35.47;;;13.90;99.90;;;;;;5123627;27;20039;-75
2023/10/09 03:23:51;;;;;;;56.55;37.97;;;13.90;99.90;;;;;;5125138;27;20039;-75
2023/10/09 03:26:21;;;;;;;60.80;39.75;;;14.00;99.90;;;;;;5124308;27;20071;-75
2023/10/09 03:28:48;;;;;;;53.95;37.33;;;13.90;99.90;;;;;;5134749;27;20074;-75
2023/10/09 03:31:14;;;;;;;56.53;39.53;;;14.00;99.90;;;;;;5126880;27;20523;-75
2023/10/09 03:33:40;;;;;;;58.40;40.22;;;14.00;99.90;;;;;;5124530;27;20039;-75
2023/10/09 03:36:09;;;;;;;70.63;44.35;;;14.00;99.90;;;;;;5127132;27;20445;-75
2023/10/09 03:38:42;;;;;;;64.07;40.72;;;14.00;99.90;;;;;;5123247;27;20409;-74
2023/10/09 03:41:12;;;;;;;68.82;42.80;;;14.10;99.90;;;;;;5111493;27;20040;-75
2023/10/09 03:43:42;;;;;;;59.63;40.70;;;14.10;99.90;;;;;;5132346;27;20038;-74
2023/10/09 03:46:21;;;;;;;65.18;43.35;;;14.10;99.90;;;;;;5127869;27;20037;-74
2023/10/09 03:48:57;;;;;;;60.78;41.45;;;14.20;99.90;;;;;;5127297;27;20673;-79
2023/10/09 03:51:23;;;;;;;53.03;38.63;;;14.10;99.90;;;;;;5135628;27;20051;-79
2023/10/09 03:53:51;;;;;;;67.72;43.83;;;14.10;99.90;;;;;;5126197;27;20057;-79
2023/10/09 03:56:17;;;;;;;62.75;41.53;;;14.20;99.90;;;;;;5138703;27;20389;-79
2023/10/09 03:58:50;;;;;;;72.20;46.22;;;14.20;99.90;;;;;;5126022;27;20051;-79
2023/10/09 04:01:37;;;;;;;60.90;42.42;;;14.20;99.90;;;;;;5132189;27;20047;-79
2023/10/09 04:04:06;;;;;;;81.30;49.03;;;14.20;99.90;;;;;;5134613;27;20108;-79
2023/10/09 04:06:33;;;;;;;72.13;45.88;;;14.20;99.90;;;;;;5131850;27;20054;-79
2023/10/09 04:11:57;;;;;;;71.18;45.55;;;14.30;99.90;;;;;;5129021;27;20066;-79
2023/10/09 04:14:33;;;;;;;73.15;46.42;;;14.30;99.90;;;;;;5127991;27;20047;-79
2023/10/09 04:18:03;;;;;;;72.63;47.13;;;14.30;99.90;;;;;;5125603;27;20078;-79
2023/10/09 04:23:05;;;;;;;82.20;48.58;;;14.30;99.90;;;;;;5083039;28;20441;-74
2023/10/09 04:25:41;;;;;;;74.35;47.03;;;14.40;99.90;;;;;;5097079;28;20421;-75
2023/10/09 04:28:09;;;;;;;76.22;48.53;;;14.40;99.90;;;;;;5109447;27;20511;-75
2023/10/09 04:30:46;;;;;;;71.45;48.30;;;14.40;99.90;;;;;;5129574;27;20412;-79
2023/10/09 04:36:26;;;;;;;66.13;46.08;;;14.50;99.90;;;;;;5128482;27;20464;-79
2023/10/09 04:41:32;;;;;;;76.18;49.00;;;14.50;99.90;;;;;;5127400;27;20116;-80
2023/10/09 04:44:36;;;;;;;89.05;52.50;;;14.60;99.90;;;;;;5125408;27;20054;-80
2023/10/09 04:50:01;;;;;;;86.93;50.55;;;14.60;99.90;;;;;;5132283;27;20038;-79
2023/10/09 05:03:12;;;;;;;60.75;40.78;;;14.80;99.90;;;;;;5133007;27;20062;-80
2023/10/09 05:11:15;;;;;;;58.72;39.97;;;14.90;99.90;;;;;;5111859;27;20130;-80
2023/10/09 05:19:33;;;;;;;83.97;48.00;;;15.00;99.90;;;;;;5128560;27;20131;-80
2023/10/09 05:22:07;;;;;;;71.65;42.78;;;15.00;99.90;;;;;;5141006;27;20493;-80
2023/10/09 05:24:47;;;;;;;59.80;40.15;;;15.00;99.90;;;;;;5132615;27;20070;-74
2023/10/09 05:27:19;;;;;;;73.13;45.30;;;15.10;99.90;;;;;;5108448;27;20092;-75
2023/10/09 05:29:59;;;;;;;60.45;41.10;;;15.10;99.90;;;;;;5136156;27;20142;-74
2023/10/09 05:32:34;;;;;;;66.07;42.75;;;15.10;99.90;;;;;;5131068;27;20050;-73
2023/10/09 05:37:34;;;;;;;57.15;39.15;;;15.20;99.90;;;;;;5137472;27;20039;-73
2023/10/09 05:42:42;;;;;;;58.00;37.33;;;15.20;99.90;;;;;;5138684;27;20120;-81
2023/10/09 05:47:54;;;;;;;62.25;39.42;;;15.30;99.90;;;;;;5131224;27;20042;-81
2023/10/09 06:24:19;;;;;;;37.28;24.15;;;15.60;99.90;;;;;;5130071;27;20047;-78
2023/10/09 06:27:12;;;;;;;33.20;22.15;;;15.60;99.90;;;;;;5127855;27;20090;-78
2023/10/09 06:29:50;;;;;;;33.97;23.05;;;15.60;99.90;;;;;;5127570;27;20051;-78
2023/10/09 06:34:56;;;;;;;33.63;21.00;;;15.70;99.90;;;;;;5123792;27;20077;-79
2023/10/09 06:42:43;;;;;;;;;;;15.70;99.90;;;;;;5127432;27;20074;-78
2023/10/09 06:47:53;;;;;;;;;;;15.70;99.90;;;;;;5133598;27;20055;-78
2023/10/09 06:52:58;;;;;;;32.97;18.48;;;15.70;99.90;;;;;;5142749;27;20099;-78
2023/10/09 06:58:15;;;;;;;26.45;17.10;;;15.80;99.90;;;;;;5132207;27;20050;-78
2023/10/09 07:03:32;;;;;;;24.98;16.08;;;15.80;99.90;;;;;;5138549;27;20085;-78
2023/10/09 07:06:24;;;;;;;27.30;16.38;;;15.80;99.90;;;;;;5139959;27;20503;-78
2023/10/09 07:14:07;;;;;;;23.27;14.68;;;15.90;99.90;;;;;;5134389;27;20501;-81
2023/10/09 07:16:39;;;;;;;25.77;14.75;;;15.90;99.90;;;;;;5135397;27;20645;-81
2023/10/09 07:21:54;;;;;;;20.15;14.52;;;15.90;99.90;;;;;;5137551;27;20054;-81
2023/10/09 07:24:24;;;;;;;23.13;14.80;;;16.00;99.90;;;;;;5134526;27;20537;-81
2023/10/09 07:26:55;;;;;;;22.98;15.00;;;16.00;99.90;;;;;;5138759;27;20158;-81
2023/10/09 07:29:24;;;;;;;25.88;14.18;;;16.00;99.90;;;;;;5136938;27;20065;-81
2023/10/09 07:32:12;;;;;;;22.80;14.05;;;16.00;99.90;;;;;;5127959;27;20055;-81
2023/10/09 07:34:53;;;;;;;20.15;14.23;;;16.00;99.90;;;;;;5127874;27;20066;-82
2023/10/09 07:37:30;;;;;;;24.42;14.65;;;16.00;99.90;;;;;;5145805;27;20046;-81
2023/10/09 07:39:57;;;;;;;24.08;14.88;;;16.00;99.90;;;;;;5135940;27;20043;-81
2023/10/09 07:48:05;;;;;;;22.23;13.20;;;16.10;99.90;;;;;;5140530;27;20050;-81
2023/10/09 07:50:48;;;;;;;22.48;14.20;;;16.10;99.90;;;;;;5129019;27;20066;-81
2023/10/09 07:53:43;;;;;;;29.17;15.88;;;16.10;99.90;;;;;;5138615;27;20405;-81
2023/10/09 07:56:08;;;;;;;20.25;13.88;;;16.10;99.90;;;;;;5140663;27;20054;-81
2023/10/09 07:58:45;;;;;;;24.13;14.93;;;16.10;99.90;;;;;;5116210;27;20390;-81
2023/10/09 08:01:15;;;;;;;27.85;15.65;;;16.20;99.90;;;;;;5139845;27;20071;-81
2023/10/09 08:03:46;;;;;;;24.88;15.32;;;16.20;99.90;;;;;;5140443;27;20074;-81
2023/10/09 08:12:13;;;;;;;24.67;15.07;;;16.20;99.90;;;;;;5145950;27;20078;-81
2023/10/09 08:14:48;;;;;;;25.65;14.82;;;16.20;99.90;;;;;;5139698;27;20043;-80
2023/10/09 08:17:25;;;;;;;25.60;14.98;;;16.30;99.90;;;;;;5133778;27;20385;-81
2023/10/09 08:19:54;;;;;;;26.27;14.85;;;16.30;99.90;;;;;;5129614;27;20058;-81
2023/10/09 08:24:57;;;;;;;23.92;14.77;;;16.30;99.90;;;;;;5138105;27;20105;-81
2023/10/09 08:32:42;;;;;;;29.48;16.75;;;16.30;99.90;;;;;;5135268;27;20099;-82
2023/10/09 08:35:29;;;;;;;29.58;16.35;;;16.30;99.90;;;;;;5113996;27;20450;-81
2023/10/09 08:38:07;;;;;;;27.58;15.95;;;16.30;99.90;;;;;;5127107;27;20489;-82
2023/10/09 08:40:37;;;;;;;28.02;16.27;;;16.30;99.90;;;;;;5144016;27;20042;-82
2023/10/09 08:43:23;;;;;;;30.70;16.87;;;16.30;99.90;;;;;;5113908;27;20065;-82
2023/10/09 08:45:53;;;;;;;25.55;15.20;;;16.30;99.90;;;;;;5139834;27;20082;-83
2023/10/09 08:48:22;;;;;;;32.10;16.75;;;16.30;99.90;;;;;;5132761;27;20042;-83
2023/10/09 08:50:54;;;;;;;33.47;18.38;;;16.30;99.90;;;;;;5114480;27;20175;-84
2023/10/09 08:53:20;;;;;;;31.27;17.60;;;16.30;99.90;;;;;;5131040;27;20195;-84
2023/10/09 08:55:46;;;;;;;29.38;17.60;;;16.30;99.90;;;;;;5116332;27;20050;-84
2023/10/09 08:58:24;;;;;;;30.80;17.08;;;16.30;99.90;;;;;;5128778;27;20091;-83
2023/10/09 09:00:51;;;;;;;35.50;17.95;;;16.30;99.90;;;;;;5140934;27;20069;-84
2023/10/09 09:03:23;;;;;;;34.15;18.40;;;16.30;99.90;;;;;;5132994;27;20039;-84
2023/10/09 09:06:04;;;;;;;28.20;18.17;;;16.30;99.90;;;;;;5113485;27;20130;-84
2023/10/09 09:08:36;;;;;;;29.58;16.42;;;16.40;99.90;;;;;;5128097;27;20047;-84
2023/10/09 09:11:14;;;;;;;34.13;17.25;;;16.40;99.90;;;;;;5128092;27;20082;-85
2023/10/09 09:14:12;;;;;;;32.63;16.77;;;16.40;99.90;;;;;;5125838;27;20082;-85
2023/10/09 09:16:44;;;;;;;35.08;18.35;;;16.40;99.90;;;;;;5124111;27;20042;-85
2023/10/09 09:21:42;;;;;;;35.33;17.88;;;16.40;99.90;;;;;;5127499;27;20047;-85
2023/10/09 09:24:26;;;;;;;28.67;16.88;;;16.40;99.90;;;;;;5111827;27;20043;-85
2023/10/09 09:27:31;;;;;;;38.67;19.52;;;16.40;99.90;;;;;;5127689;27;20053;-85
2023/10/09 09:29:57;;;;;;;27.38;16.75;;;16.40;99.90;;;;;;5123690;27;20051;-85
2023/10/09 09:32:35;;;;;;;32.55;18.73;;;16.50;99.90;;;;;;5128463;27;20092;-84
2023/10/09 09:35:04;;;;;;;42.80;22.02;;;16.50;99.90;;;;;;5130055;27;20058;-85
2023/10/09 09:37:51;;;;;;;29.45;17.30;;;16.50;99.90;;;;;;5125769;27;20047;-86
2023/10/09 09:43:04;;;;;;;33.05;17.58;;;16.50;99.90;;;;;;5126619;27;20062;-85
2023/10/09 09:45:36;;;;;;;32.40;16.95;;;16.60;99.90;;;;;;5126061;27;20421;-85
2023/10/09 09:48:06;;;;;;;31.58;18.83;;;16.60;99.90;;;;;;5129798;27;20192;-86
2023/10/09 09:50:36;;;;;;;25.40;15.68;;;16.60;99.90;;;;;;5110113;27;20500;-86
2023/10/09 09:53:03;;;;;;;30.23;17.02;;;16.60;99.90;;;;;;5129468;27;20039;-86
2023/10/09 09:55:35;;;;;;;30.52;16.80;;;16.70;99.90;;;;;;5130087;27;20410;-86
2023/10/09 09:58:08;;;;;;;25.70;15.93;;;16.70;99.90;;;;;;5108646;27;20306;-87
2023/10/09 10:00:42;;;;;;;33.95;18.40;;;16.80;99.90;;;;;;5113563;27;20486;-86
2023/10/09 10:03:16;;;;;;;27.55;16.48;;;16.80;99.90;;;;;;5125272;27;20904;-85
2023/10/09 10:05:46;;;;;;;30.55;16.67;;;16.80;99.90;;;;;;5112048;27;20386;-86
2023/10/09 10:08:19;;;;;;;30.92;18.25;;;16.90;99.90;;;;;;5125065;27;20389;-85
2023/10/09 10:11:04;;;;;;;37.33;19.70;;;16.90;99.90;;;;;;5110152;27;20054;-85
2023/10/09 10:13:42;;;;;;;29.60;17.20;;;16.90;99.90;;;;;;5109609;27;20410;-85
2023/10/09 10:19:40;;;;;;;28.95;17.58;;;17.00;99.90;;;;;;5126830;27;20050;-85
2023/10/09 10:21:52;;;;;;;28.25;16.38;;;17.10;99.90;;;;;;5116979;27;20051;-84
2023/10/09 10:25:32;;;;;;;33.22;19.17;;;17.10;99.90;;;;;;5131521;27;20080;-84
2023/10/09 10:27:26;;;;;;;27.02;16.50;;;17.10;99.90;;;;;;5120031;27;20497;-84
2023/10/09 10:30:18;;;;;;;;;;;17.10;99.90;;;;;;5126229;27;20058;-84
2023/10/09 10:32:58;;;;;;;34.83;20.08;;;17.10;99.90;;;;;;5097549;27;19934;-84
2023/10/09 10:35:39;;;;;;;28.90;17.38;;;17.10;99.90;;;;;;5139322;27;20066;-84
2023/10/09 10:38:24;;;;;;;29.85;17.95;;;17.00;99.90;;;;;;5129412;27;20054;-84
2023/10/09 10:40:57;;;;;;;33.67;18.02;;;17.00;99.90;;;;;;5110148;27;20080;-83
2023/10/09 10:43:47;;;;;;;26.98;16.45;;;17.00;99.90;;;;;;5140111;27;20043;-83
2023/10/09 10:46:15;;;;;;;26.48;16.27;;;17.10;99.90;;;;;;5136526;27;20077;-83
2023/10/09 10:48:46;;;;;;;30.67;17.85;;;17.00;99.90;;;;;;5126401;27;20062;-83
2023/10/09 10:51:14;;;;;;;29.58;15.88;;;17.00;99.90;;;;;;5127617;27;20047;-83
2023/10/09 10:56:51;;;;;;;26.88;15.52;;;17.00;99.90;;;;;;5130105;27;20448;-83
2023/10/09 10:59:23;;;;;;;30.30;17.50;;;17.00;99.90;;;;;;5130436;27;20404;-84
2023/10/09 11:01:58;;;;;;;29.48;17.23;;;17.00;99.90;;;;;;5122506;27;20058;-84
2023/10/09 11:04:38;;;;;;;29.83;17.05;;;17.00;99.90;;;;;;5137509;27;20042;-83
2023/10/09 11:07:09;;;;;;;31.10;17.50;;;17.00;99.90;;;;;;5135026;27;20039;-84
2023/10/09 11:12:39;;;;;;;29.77;17.23;;;17.00;99.90;;;;;;5126872;27;20540;-84
2023/10/09 11:31:59;;;;;;;30.38;16.50;;;17.00;99.90;;;;;;5142285;27;20046;-82
2023/10/09 11:34:29;;;;;;;30.00;16.60;;;17.00;99.90;;;;;;5136146;27;20045;-82
2023/10/09 11:40:00;;;;;;;26.30;15.45;;;17.10;99.90;;;;;;5134227;27;20055;-76
2023/10/09 11:42:49;;;;;;;28.80;14.65;;;17.10;99.90;;;;;;5141848;27;20049;-76
2023/10/09 11:45:28;;;;;;;28.08;15.82;;;17.10;99.90;;;;;;5143271;27;20521;-76
2023/10/09 11:47:58;;;;;;;29.37;14.97;;;17.20;99.90;;;;;;5140761;27;20066;-76
2023/10/09 11:50:43;;;;;;;25.40;13.55;;;17.20;99.90;;;;;;5134326;27;20039;-77
2023/10/09 11:55:52;;;;;;;21.92;12.45;;;17.30;99.90;;;;;;5128129;27;20054;-77
2023/10/09 11:58:22;;;;;;;28.60;15.32;;;17.30;99.90;;;;;;5132472;27;20080;-76
2023/10/09 12:01:21;;;;;;;22.38;13.50;;;17.30;99.90;;;;;;5143182;27;20066;-76
2023/10/09 12:03:49;;;;;;;22.92;12.02;;;17.30;99.90;;;;;;5131195;27;20058;-81
2023/10/09 12:06:18;;;;;;;17.77;11.15;;;17.30;99.90;;;;;;5126900;27;20053;-82
2023/10/09 12:08:48;;;;;;;24.48;13.13;;;17.30;99.90;;;;;;5131609;27;20054;-82
2023/10/09 12:11:22;;;;;;;19.38;11.18;;;17.30;99.90;;;;;;5142919;27;20066;-82
2023/10/09 12:13:56;;;;;;;17.73;9.82;;;17.30;99.90;;;;;;5111092;27;20063;-82
2023/10/09 12:16:22;;;;;;;18.25;10.45;;;17.20;99.90;;;;;;5139563;27;20035;-83
2023/10/09 12:18:53;;;;;;;17.73;8.75;;;17.20;99.90;;;;;;5130670;27;20409;-82
2023/10/09 12:21:20;;;;;;;21.70;10.35;;;17.20;99.90;;;;;;5144063;27;20040;-82
2023/10/09 12:23:47;;;;;;;16.10;10.50;;;17.20;99.90;;;;;;5141363;27;20432;-82
2023/10/09 12:26:16;;;;;;;17.70;9.38;;;17.20;99.90;;;;;;5143442;27;20057;-82
2023/10/09 12:28:46;;;;;;;20.95;9.65;;;17.20;99.90;;;;;;5142904;27;20051;-81
2023/10/09 12:31:16;;;;;;;18.67;10.85;;;17.30;99.90;;;;;;5113890;27;20087;-83
2023/10/09 12:33:42;;;;;;;16.35;9.43;;;17.50;99.90;;;;;;5140871;27;20052;-82
2023/10/09 12:36:20;;;;;;;19.83;9.70;;;17.70;99.90;;;;;;5113363;27;20121;-82
2023/10/09 12:38:50;;;;;;;15.55;8.63;;;17.80;99.90;;;;;;5113028;27;20366;-81
2023/10/09 12:41:20;;;;;;;16.20;7.85;;;17.90;99.90;;;;;;5137448;27;20099;-81
2023/10/09 12:43:48;;;;;;;16.67;8.60;;;18.00;99.90;;;;;;5144491;27;20046;-81
2023/10/09 12:46:37;;;;;;;15.95;7.50;;;18.00;99.90;;;;;;5110191;27;20074;-81
2023/10/09 12:49:03;;;;;;;17.65;7.88;;;18.00;99.90;;;;;;5130694;27;20307;-81
2023/10/09 12:51:31;;;;;;;15.63;8.32;;;18.00;99.90;;;;;;5136594;27;20062;-81
2023/10/09 12:53:57;;;;;;;14.50;8.32;;;18.00;99.90;;;;;;5134882;27;20054;-81
2023/10/09 12:56:40;;;;;;;17.45;9.13;;;18.10;99.90;;;;;;5134831;27;20039;-81
2023/10/09 12:59:14;;;;;;;18.25;9.68;;;18.00;99.90;;;;;;5139955;27;20426;-81
2023/10/09 13:01:43;;;;;;;21.25;9.52;;;18.00;99.90;;;;;;5130004;27;20394;-81
2023/10/09 13:04:11;;;;;;;14.75;8.32;;;18.00;99.90;;;;;;5135445;27;20038;-81
2023/10/09 13:06:45;;;;;;;17.75;9.82;;;17.90;99.90;;;;;;5130949;27;20050;-81
2023/10/09 13:09:13;;;;;;;13.57;8.52;;;17.90;99.90;;;;;;5137338;27;20042;-81
2023/10/09 13:11:42;;;;;;;17.92;7.88;;;17.90;99.90;;;;;;5136039;27;20050;-81
2023/10/09 13:14:16;;;;;;;16.67;7.65;;;17.90;99.90;;;;;;5129952;27;20750;-81
2023/10/09 13:16:45;;;;;;;11.55;6.90;;;17.90;99.90;;;;;;5131310;27;20599;-81
2023/10/09 13:19:24;;;;;;;15.48;7.30;;;18.00;99.90;;;;;;5128288;27;20039;-81
2023/10/09 13:21:50;;;;;;;18.25;7.75;;;18.00;99.90;;;;;;5129110;27;20046;-81
2023/10/09 13:24:16;;;;;;;13.20;5.97;;;18.00;99.90;;;;;;5110205;27;20042;-81
2023/10/09 13:26:51;;;;;;;10.23;5.10;;;18.00;99.90;;;;;;5140874;27;20031;-81
2023/10/09 13:29:22;;;;;;;11.90;5.75;;;18.00;99.90;;;;;;5127854;27;20097;-81
2023/10/09 13:34:27;;;;;;;9.95;5.82;;;18.00;99.90;;;;;;2612077;22;22145;-75
2023/10/09 13:36:55;;;;;;;11.13;6.28;;;18.00;99.90;;;;;;5008731;28;20483;-75
2023/10/09 13:39:27;;;;;;;15.15;6.80;;;18.00;99.90;;;;;;5024678;28;20044;-75
2023/10/09 13:41:58;;;;;;;10.30;4.97;;;18.00;99.90;;;;;;5028612;28;20195;-75
2023/10/09 13:44:31;;;;;;;13.45;4.97;;;18.00;99.90;;;;;;5026233;28;20209;-75
2023/10/09 13:46:59;;;;;;;11.63;4.95;;;18.00;99.90;;;;;;5027360;28;20479;-75
2023/10/09 13:49:29;;;;;;;11.02;4.97;;;18.00;99.90;;;;;;5013294;28;20045;-75
2023/10/09 13:51:59;;;;;;;10.88;4.70;;;18.00;99.90;;;;;;5039890;28;20060;-75
2023/10/09 13:54:39;;;;;;;;;;;18.00;99.90;;;;;;5053563;28;20146;-75
2023/10/09 13:57:06;;;;;;;11.57;5.18;;;17.90;99.90;;;;;;5027082;28;20378;-75
2023/10/09 13:59:43;;;;;;;11.57;5.50;;;17.90;99.90;;;;;;5041299;28;20036;-75
2023/10/09 14:02:09;;;;;;;13.43;5.70;;;17.90;99.90;;;;;;5036018;28;20071;-75
2023/10/09 14:04:36;;;;;;;12.90;5.18;;;17.90;99.90;;;;;;5034433;28;20495;-75
2023/10/09 14:07:05;;;;;;;11.63;5.15;;;17.90;99.90;;;;;;5033859;28;20045;-75
2023/10/09 14:09:31;;;;;;;12.88;5.55;;;17.90;99.90;;;;;;5033965;28;20437;-75
2023/10/09 14:12:08;;;;;;;11.55;4.50;;;18.00;99.90;;;;;;5043759;28;20049;-75
2023/10/09 14:14:46;;;;;;;11.88;4.50;;;17.90;99.90;;;;;;5035182;28;20049;-75
2023/10/09 14:17:23;;;;;;;11.38;4.20;;;17.90;99.90;;;;;;5026699;28;20457;-75
2023/10/09 14:19:53;;;;;;;10.00;4.82;;;17.90;99.90;;;;;;5030714;28;20045;-74
2023/10/09 14:22:20;;;;;;;;;;;17.90;99.90;;;;;;5026608;28;20079;-74
2023/10/09 14:24:47;;;;;;;10.70;4.82;;;17.90;99.90;;;;;;5017260;28;19921;-74
2023/10/09 14:27:19;;;;;;;12.68;4.88;;;17.90;99.90;;;;;;5026147;28;20399;-74
2023/10/09 14:29:48;;;;;;;13.70;4.95;;;17.90;99.90;;;;;;5039317;28;20490;-74
2023/10/09 14:32:14;;;;;;;11.02;4.82;;;17.80;99.90;;;;;;5023583;28;20047;-74
2023/10/09 14:34:50;;;;;;;16.33;5.63;;;17.90;99.90;;;;;;5038230;28;20125;-75
2023/10/09 14:37:17;;;;;;;12.50;4.35;;;17.90;99.90;;;;;;5039229;28;20055;-75
2023/10/09 14:39:48;;;;;;;11.10;4.53;;;17.80;99.90;;;;;;5044000;28;20049;-74
2023/10/09 14:42:17;;;;;;;8.80;3.75;;;17.80;99.90;;;;;;5022706;28;20644;-74
2023/10/09 14:44:47;;;;;;;8.60;3.80;;;17.80;99.90;;;;;;5034863;28;20043;-74
2023/10/09 14:47:18;;;;;;;12.57;5.10;;;17.80;99.90;;;;;;5052940;28;20103;-74
2023/10/09 14:49:47;;;;;;;14.98;4.50;;;17.70;99.90;;;;;;5016063;28;20053;-74
2023/10/09 14:52:27;;;;;;;13.00;6.27;;;17.70;99.90;;;;;;5032812;28;20106;-74
2023/10/09 14:54:53;;;;;;;15.90;6.22;;;17.70;99.90;;;;;;5029367;28;20614;-75
2023/10/09 14:57:18;;;;;;;12.35;7.03;;;17.70;99.90;;;;;;5029708;28;20060;-74
2023/10/09 14:59:44;;;;;;;10.80;5.88;;;17.70;99.90;;;;;;5029843;28;20048;-74
2023/10/09 15:02:12;;;;;;;8.85;5.10;;;17.60;99.90;;;;;;5042767;28;20049;-74
2023/10/09 15:04:37;;;;;;;12.23;4.63;;;17.60;99.90;;;;;;5025356;28;20041;-74
2023/10/09 15:07:07;;;;;;;12.23;5.65;;;17.60;99.90;;;;;;5042447;28;20059;-74
2023/10/09 15:09:36;;;;;;;10.27;5.10;;;17.60;99.90;;;;;;5020930;28;20048;-74
2023/10/09 15:12:06;;;;;;;13.85;6.30;;;17.60;99.90;;;;;;5024823;28;20514;-74
2023/10/09 15:14:32;;;;;;;12.07;4.95;;;17.60;99.90;;;;;;5030010;28;20053;-75
2023/10/09 15:16:57;;;;;;;11.48;4.85;;;17.50;99.90;;;;;;5048081;28;20118;-74
2023/10/09 15:19:29;;;;;;;12.45;5.22;;;17.50;99.90;;;;;;5021077;28;20121;-75
2023/10/09 15:21:58;;;;;;;12.20;5.60;;;17.50;99.90;;;;;;5012083;28;20487;-75
2023/10/09 15:24:25;;;;;;;8.55;4.20;;;17.50;99.90;;;;;;5020640;28;20391;-74
2023/10/09 15:27:00;;;;;;;11.90;5.20;;;17.50;99.90;;;;;;5019540;28;20510;-74
2023/10/09 15:29:28;;;;;;;13.68;4.45;;;17.50;99.90;;;;;;5030330;28;20553;-74
2023/10/09 15:32:04;;;;;;;8.40;4.03;;;17.40;99.90;;;;;;5037453;28;20068;-75
2023/10/09 15:34:39;;;;;;;12.88;4.50;;;17.50;99.90;;;;;;5037766;28;20490;-74
2023/10/09 15:37:08;;;;;;;7.07;4.40;;;17.50;99.90;;;;;;5039611;28;20394;-74
2023/10/09 15:39:35;;;;;;;9.90;4.10;;;17.40;99.90;;;;;;5017526;28;20036;-74
2023/10/09 15:42:06;;;;;;;8.95;3.92;;;17.50;99.90;;;;;;5051950;28;20498;-75
2023/10/09 15:44:38;;;;;;;8.55;3.42;;;17.50;99.90;;;;;;5023959;28;20410;-75
2023/10/09 15:47:08;;;;;;;8.50;3.80;;;17.40;99.90;;;;;;5021840;28;20045;-74
2023/10/09 15:49:34;;;;;;;;;;;17.40;99.90;;;;;;5048313;28;20077;-74
2023/10/09 15:52:03;;;;;;;7.45;3.33;;;17.40;99.90;;;;;;5044380;28;19967;-74
2023/10/09 15:54:28;;;;;;;7.45;3.55;;;17.40;99.90;;;;;;5032193;28;20077;-74
2023/10/09 15:56:55;;;;;;;7.40;3.28;;;17.40;99.90;;;;;;5040067;28;20068;-75
2023/10/09 15:59:24;;;;;;;8.73;3.90;;;17.40;99.90;;;;;;5039091;28;20069;-75
2023/10/09 16:01:53;;;;;;;7.82;3.88;;;17.40;99.90;;;;;;5030174;28;20033;-75
2023/10/09 16:04:18;;;;;;;7.32;3.90;;;17.30;99.90;;;;;;5026459;28;20057;-74
2023/10/09 16:06:44;;;;;;;7.97;3.72;;;17.30;99.90;;;;;;5029694;28;20056;-75